• Join FlightAware (Why Join?)
  • Login
  • US Flag 
01:14AM EDT


 

Airport Tracker/Info


-or-


 

Live Flight TrackerFlight Track Log ✈ CTL61 ✈ 17-Apr-2013 ✈ KCRW - KOSU

Flight Track Log - Related Links

Times and Time Zones

All times are in EDT time to prevent confusion due to time zone crossing. See the CTL61 flight status page for this flight to view local times or setup timezone preferences in your user account.

Time Position Orientation Groundspeed Altitude Reporting Facility
EDT Latitude Longitude Course Direction KTS MPH feet Rate Location/Type
11:38PM 38.4642 -81.6869 325° Northwest 136 157 4,400  Level Indianapolis Center
11:39PM 38.4958 -81.7153 325° Northwest 137 158 5,200 720 Climbing Indianapolis Center
11:40PM 38.5283 -81.7444 325° Northwest 140 161 5,900 360 Climbing Indianapolis Center
11:41PM 38.6085 -81.7891 327° Northwest  Level FlightAware Approximate
11:41PM 38.5686 -81.7764 328° Northwest 169 194 6,000  Level Indianapolis Center
11:42PM 38.6489 -81.8233 327° Northwest  Level FlightAware Approximate
11:42PM 38.6108 -81.8147 325° Northwest 182 209 6,000  Level Indianapolis Center
11:43PM 38.6539 -81.8550 324° Northwest 190 219 6,000  Level Indianapolis Center
11:44PM 38.6953 -81.8953 323° Northwest 188 216 6,000  Level Indianapolis Center
11:45PM 38.7411 -81.9294 330° Northwest 191 220 6,000  Level Indianapolis Center
11:46PM 38.7847 -81.9667 326° Northwest 187 215 6,000  Level Indianapolis Center
11:47PM 38.8289 -82.0025 328° Northwest 188 216 6,000  Level Indianapolis Center
11:48PM 38.8719 -82.0400 326° Northwest 187 215 6,000  Level Indianapolis Center
11:49PM 38.9153 -82.0758 327° Northwest 186 214 6,100  Climbing Indianapolis Center
11:50PM 38.9586 -82.1125 327° Northwest 186 214 6,100 -60 Level Indianapolis Center
11:51PM 39.0022 -82.1500 326° Northwest 187 215 6,000 -60 Descending Indianapolis Center
11:52PM 39.0453 -82.1856 327° Northwest 186 214 6,000  Level Indianapolis Center
11:53PM 39.0972 -82.2306 326° Northwest 187 215 6,000  Level Indianapolis Center
11:54PM 39.1400 -82.2692 325° Northwest 186 214 6,000  Level Indianapolis Center
11:55PM 39.1800 -82.3106 321° Northwest 184 212 6,000  Level Indianapolis Center
11:56PM 39.2217 -82.3506 323° Northwest 185 213 6,000  Level Indianapolis Center
11:57PM 39.2617 -82.3897 323° Northwest 182 209 6,000  Level Indianapolis Center
11:58PM 39.3036 -82.4294 324° Northwest 185 213 6,000  Level Indianapolis Center
11:59PM 39.3456 -82.4686 324° Northwest 186 214 6,000 60 Level Indianapolis Center
11:59PM 39.3672 -82.4853 329° Northwest 186 214 6,100  Climbing Indianapolis Center
12:00AM 39.3908 -82.5067 325° Northwest 185 213 6,000 -120 Descending Indianapolis Center
12:01AM 39.4325 -82.5436 326° Northwest 183 211 6,000  Level Indianapolis Center
12:02AM 39.4739 -82.5803 326° Northwest 183 211 6,000  Level Indianapolis Center
12:03AM 39.5197 -82.6167 329° Northwest 181 208 6,000  Level Indianapolis Center
12:04AM 39.5594 -82.6492 328° Northwest 181 208 6,000  Level Indianapolis Center
12:05AM 39.6050 -82.6892 326° Northwest 182 209 6,100  Climbing Indianapolis Center
12:06AM 39.6464 -82.7264 325° Northwest 183 211 6,100 -120 Level Indianapolis Center
12:07AM 39.6897 -82.7647 326° Northwest 184 212 5,900 -300 Descending Indianapolis Center
12:08AM 39.7292 -82.8058 321° Northwest 191 220 5,500 -540 Descending Indianapolis Center
12:09AM 39.7706 -82.8431 325° Northwest 197 227 5,000 -480 Descending Indianapolis Center
12:10AM 39.8183 -82.8783 330° Northwest 194 223 4,600 -480 Descending Indianapolis Center
12:11AM 39.8619 -82.9158 327° Northwest 194 223 4,100 -300 Descending Indianapolis Center
12:12AM 39.9128 -82.9575 328° Northwest 188 216 4,000 -60 Descending Indianapolis Center
12:13AM 39.9617 -82.9944 330° Northwest 185 213 4,000  Level Indianapolis Center
12:15AM 40.0156 -83.0283 334° Northwest  Level FlightAware Approximate
12:22AM 40.0667 -83.0667 323° Northwest  Level FlightAware Approximate
12:23AM 40.0798 -83.0732 323° Northwest  Level Estimated